sensor_id;sensor_type;location;lat;lon;timestamp;P1;durP1;ratioP1;P2;durP2;ratioP2
31594;SDS011;18200;48.726;8.892;2023-06-24T00:03:48;12.05;;;7.80;;
31594;SDS011;18200;48.726;8.892;2023-06-24T00:07:48;10.38;;;7.32;;
31594;SDS011;18200;48.726;8.892;2023-06-24T00:11:49;9.73;;;6.95;;
31594;SDS011;18200;48.726;8.892;2023-06-24T00:15:49;9.32;;;7.07;;
31594;SDS011;18200;48.726;8.892;2023-06-24T00:19:49;10.82;;;8.43;;
31594;SDS011;18200;48.726;8.892;2023-06-24T00:23:50;12.63;;;7.88;;
31594;SDS011;18200;48.726;8.892;2023-06-24T00:27:50;9.27;;;7.05;;
31594;SDS011;18200;48.726;8.892;2023-06-24T00:31:51;10.68;;;7.72;;
31594;SDS011;18200;48.726;8.892;2023-06-24T00:35:51;12.43;;;6.63;;
31594;SDS011;18200;48.726;8.892;2023-06-24T00:39:51;8.95;;;7.22;;
31594;SDS011;18200;48.726;8.892;2023-06-24T00:43:52;12.32;;;7.50;;
31594;SDS011;18200;48.726;8.892;2023-06-24T00:47:52;9.32;;;7.40;;
31594;SDS011;18200;48.726;8.892;2023-06-24T00:51:54;7.22;;;6.15;;
31594;SDS011;18200;48.726;8.892;2023-06-24T00:55:55;10.30;;;6.88;;
31594;SDS011;18200;48.726;8.892;2023-06-24T01:00:02;8.82;;;6.38;;
31594;SDS011;18200;48.726;8.892;2023-06-24T01:04:08;8.98;;;7.30;;
31594;SDS011;18200;48.726;8.892;2023-06-24T01:08:09;8.07;;;6.35;;
31594;SDS011;18200;48.726;8.892;2023-06-24T01:12:15;10.63;;;7.00;;
31594;SDS011;18200;48.726;8.892;2023-06-24T01:16:37;10.27;;;7.22;;
31594;SDS011;18200;48.726;8.892;2023-06-24T01:20:45;10.55;;;7.35;;
31594;SDS011;18200;48.726;8.892;2023-06-24T01:24:53;10.90;;;6.75;;
31594;SDS011;18200;48.726;8.892;2023-06-24T01:33:48;8.93;;;6.63;;
31594;SDS011;18200;48.726;8.892;2023-06-24T01:37:54;9.13;;;6.70;;
31594;SDS011;18200;48.726;8.892;2023-06-24T01:42:00;9.70;;;7.18;;
31594;SDS011;18200;48.726;8.892;2023-06-24T01:46:05;10.38;;;8.20;;
31594;SDS011;18200;48.726;8.892;2023-06-24T01:50:06;10.38;;;7.68;;
31594;SDS011;18200;48.726;8.892;2023-06-24T01:54:10;11.57;;;7.32;;
31594;SDS011;18200;48.726;8.892;2023-06-24T01:58:13;12.05;;;7.95;;
31594;SDS011;18200;48.726;8.892;2023-06-24T02:02:16;11.13;;;7.75;;
31594;SDS011;18200;48.726;8.892;2023-06-24T02:06:20;9.80;;;7.50;;
31594;SDS011;18200;48.726;8.892;2023-06-24T02:10:22;9.45;;;7.35;;
31594;SDS011;18200;48.726;8.892;2023-06-24T02:14:25;11.00;;;7.28;;
31594;SDS011;18200;48.726;8.892;2023-06-24T02:18:27;11.53;;;8.50;;
31594;SDS011;18200;48.726;8.892;2023-06-24T02:22:28;9.73;;;7.40;;
31594;SDS011;18200;48.726;8.892;2023-06-24T02:26:29;12.38;;;7.53;;
31594;SDS011;18200;48.726;8.892;2023-06-24T02:30:30;12.70;;;7.68;;
31594;SDS011;18200;48.726;8.892;2023-06-24T02:34:31;13.55;;;7.50;;
31594;SDS011;18200;48.726;8.892;2023-06-24T02:38:34;10.88;;;8.10;;
31594;SDS011;18200;48.726;8.892;2023-06-24T02:42:34;11.55;;;8.13;;
31594;SDS011;18200;48.726;8.892;2023-06-24T02:46:34;11.85;;;8.27;;
31594;SDS011;18200;48.726;8.892;2023-06-24T02:50:37;10.38;;;8.00;;
31594;SDS011;18200;48.726;8.892;2023-06-24T02:54:41;13.15;;;8.88;;
31594;SDS011;18200;48.726;8.892;2023-06-24T02:59:01;13.73;;;8.68;;
31594;SDS011;18200;48.726;8.892;2023-06-24T03:03:03;11.10;;;8.20;;
31594;SDS011;18200;48.726;8.892;2023-06-24T03:07:05;15.02;;;7.80;;
31594;SDS011;18200;48.726;8.892;2023-06-24T03:11:11;12.63;;;7.30;;
31594;SDS011;18200;48.726;8.892;2023-06-24T03:15:13;12.07;;;8.10;;
31594;SDS011;18200;48.726;8.892;2023-06-24T03:19:14;10.82;;;8.30;;
31594;SDS011;18200;48.726;8.892;2023-06-24T03:23:15;12.35;;;8.45;;
31594;SDS011;18200;48.726;8.892;2023-06-24T03:27:17;10.95;;;8.07;;
31594;SDS011;18200;48.726;8.892;2023-06-24T03:31:17;12.27;;;8.80;;
31594;SDS011;18200;48.726;8.892;2023-06-24T03:35:18;10.20;;;7.55;;
31594;SDS011;18200;48.726;8.892;2023-06-24T03:39:19;14.93;;;8.00;;
31594;SDS011;18200;48.726;8.892;2023-06-24T03:43:20;12.07;;;8.13;;
31594;SDS011;18200;48.726;8.892;2023-06-24T03:47:21;12.07;;;8.02;;
31594;SDS011;18200;48.726;8.892;2023-06-24T03:51:21;11.73;;;8.25;;
31594;SDS011;18200;48.726;8.892;2023-06-24T03:55:21;12.15;;;8.48;;
31594;SDS011;18200;48.726;8.892;2023-06-24T03:59:22;12.50;;;8.65;;
31594;SDS011;18200;48.726;8.892;2023-06-24T04:03:23;10.55;;;7.95;;
31594;SDS011;18200;48.726;8.892;2023-06-24T04:07:25;9.85;;;7.63;;
31594;SDS011;18200;48.726;8.892;2023-06-24T04:11:31;9.70;;;7.22;;
31594;SDS011;18200;48.726;8.892;2023-06-24T04:15:33;9.75;;;7.72;;
31594;SDS011;18200;48.726;8.892;2023-06-24T04:19:34;9.50;;;7.53;;
31594;SDS011;18200;48.726;8.892;2023-06-24T04:23:34;10.95;;;7.68;;
31594;SDS011;18200;48.726;8.892;2023-06-24T04:27:35;11.07;;;7.57;;
31594;SDS011;18200;48.726;8.892;2023-06-24T04:31:36;12.65;;;7.55;;
31594;SDS011;18200;48.726;8.892;2023-06-24T04:35:36;14.80;;;8.43;;
31594;SDS011;18200;48.726;8.892;2023-06-24T04:39:38;11.52;;;7.78;;
31594;SDS011;18200;48.726;8.892;2023-06-24T04:43:39;13.05;;;7.88;;
31594;SDS011;18200;48.726;8.892;2023-06-24T04:47:39;11.48;;;8.43;;
31594;SDS011;18200;48.726;8.892;2023-06-24T04:51:40;13.10;;;8.43;;
31594;SDS011;18200;48.726;8.892;2023-06-24T04:55:41;13.70;;;8.35;;
31594;SDS011;18200;48.726;8.892;2023-06-24T04:59:41;12.93;;;8.40;;
31594;SDS011;18200;48.726;8.892;2023-06-24T05:03:42;12.50;;;8.27;;
31594;SDS011;18200;48.726;8.892;2023-06-24T05:07:42;12.55;;;8.88;;
31594;SDS011;18200;48.726;8.892;2023-06-24T05:11:42;12.70;;;8.60;;
31594;SDS011;18200;48.726;8.892;2023-06-24T05:15:43;10.32;;;8.20;;
31594;SDS011;18200;48.726;8.892;2023-06-24T05:19:43;11.15;;;8.00;;
31594;SDS011;18200;48.726;8.892;2023-06-24T05:23:44;10.90;;;7.93;;
31594;SDS011;18200;48.726;8.892;2023-06-24T05:27:44;11.45;;;8.05;;
31594;SDS011;18200;48.726;8.892;2023-06-24T05:31:44;13.52;;;8.93;;
31594;SDS011;18200;48.726;8.892;2023-06-24T05:35:46;16.20;;;7.93;;
31594;SDS011;18200;48.726;8.892;2023-06-24T05:39:47;14.18;;;8.43;;
31594;SDS011;18200;48.726;8.892;2023-06-24T05:43:47;13.30;;;8.45;;
31594;SDS011;18200;48.726;8.892;2023-06-24T05:47:47;12.57;;;8.75;;
31594;SDS011;18200;48.726;8.892;2023-06-24T05:51:48;10.85;;;8.20;;
31594;SDS011;18200;48.726;8.892;2023-06-24T05:55:48;10.20;;;7.82;;
31594;SDS011;18200;48.726;8.892;2023-06-24T05:59:49;10.88;;;7.72;;
31594;SDS011;18200;48.726;8.892;2023-06-24T06:03:49;15.88;;;8.40;;
31594;SDS011;18200;48.726;8.892;2023-06-24T06:07:50;11.32;;;7.82;;
31594;SDS011;18200;48.726;8.892;2023-06-24T06:11:50;11.90;;;8.23;;
31594;SDS011;18200;48.726;8.892;2023-06-24T06:15:50;9.10;;;7.10;;
31594;SDS011;18200;48.726;8.892;2023-06-24T06:19:51;10.32;;;7.25;;
31594;SDS011;18200;48.726;8.892;2023-06-24T06:23:51;9.27;;;6.97;;
31594;SDS011;18200;48.726;8.892;2023-06-24T06:27:51;9.57;;;7.55;;
31594;SDS011;18200;48.726;8.892;2023-06-24T06:31:52;10.63;;;7.22;;
31594;SDS011;18200;48.726;8.892;2023-06-24T06:35:53;9.93;;;7.10;;
31594;SDS011;18200;48.726;8.892;2023-06-24T06:39:53;8.57;;;6.93;;
31594;SDS011;18200;48.726;8.892;2023-06-24T06:43:53;10.52;;;7.43;;
31594;SDS011;18200;48.726;8.892;2023-06-24T06:47:54;7.30;;;5.75;;
31594;SDS011;18200;48.726;8.892;2023-06-24T06:51:54;10.73;;;6.22;;
31594;SDS011;18200;48.726;8.892;2023-06-24T06:55:55;9.90;;;6.88;;
31594;SDS011;18200;48.726;8.892;2023-06-24T06:59:56;7.28;;;6.10;;
31594;SDS011;18200;48.726;8.892;2023-06-24T07:03:56;8.18;;;6.07;;
31594;SDS011;18200;48.726;8.892;2023-06-24T07:07:57;8.25;;;5.80;;
31594;SDS011;18200;48.726;8.892;2023-06-24T07:11:57;6.95;;;5.35;;
31594;SDS011;18200;48.726;8.892;2023-06-24T07:15:57;7.65;;;5.45;;
31594;SDS011;18200;48.726;8.892;2023-06-24T07:19:58;6.80;;;5.25;;
31594;SDS011;18200;48.726;8.892;2023-06-24T07:23:58;7.63;;;5.18;;
31594;SDS011;18200;48.726;8.892;2023-06-24T07:27:58;8.50;;;4.80;;
31594;SDS011;18200;48.726;8.892;2023-06-24T07:31:59;6.95;;;5.05;;
31594;SDS011;18200;48.726;8.892;2023-06-24T07:35:59;6.85;;;4.95;;
31594;SDS011;18200;48.726;8.892;2023-06-24T07:39:59;7.55;;;5.28;;
31594;SDS011;18200;48.726;8.892;2023-06-24T07:44:00;8.63;;;5.57;;
31594;SDS011;18200;48.726;8.892;2023-06-24T07:48:00;7.00;;;4.85;;
31594;SDS011;18200;48.726;8.892;2023-06-24T07:52:00;6.43;;;4.45;;
31594;SDS011;18200;48.726;8.892;2023-06-24T07:56:01;7.28;;;4.72;;
31594;SDS011;18200;48.726;8.892;2023-06-24T08:00:01;7.15;;;4.72;;
31594;SDS011;18200;48.726;8.892;2023-06-24T08:04:14;6.60;;;4.18;;
31594;SDS011;18200;48.726;8.892;2023-06-24T08:08:15;7.15;;;4.45;;
31594;SDS011;18200;48.726;8.892;2023-06-24T08:12:15;7.68;;;4.90;;
31594;SDS011;18200;48.726;8.892;2023-06-24T08:16:17;6.82;;;4.25;;
31594;SDS011;18200;48.726;8.892;2023-06-24T08:20:22;6.40;;;4.53;;
31594;SDS011;18200;48.726;8.892;2023-06-24T08:24:23;8.07;;;4.28;;
31594;SDS011;18200;48.726;8.892;2023-06-24T08:28:23;5.90;;;4.60;;
31594;SDS011;18200;48.726;8.892;2023-06-24T08:32:24;8.27;;;4.47;;
31594;SDS011;18200;48.726;8.892;2023-06-24T08:36:25;7.40;;;4.45;;
31594;SDS011;18200;48.726;8.892;2023-06-24T08:40:27;9.40;;;4.80;;
31594;SDS011;18200;48.726;8.892;2023-06-24T08:44:28;7.22;;;4.50;;
31594;SDS011;18200;48.726;8.892;2023-06-24T08:48:28;5.32;;;3.92;;
31594;SDS011;18200;48.726;8.892;2023-06-24T08:52:31;5.47;;;4.05;;
31594;SDS011;18200;48.726;8.892;2023-06-24T09:00:35;6.70;;;4.32;;
31594;SDS011;18200;48.726;8.892;2023-06-24T09:04:35;5.60;;;3.75;;
31594;SDS011;18200;48.726;8.892;2023-06-24T09:08:36;8.40;;;3.95;;
31594;SDS011;18200;48.726;8.892;2023-06-24T09:12:39;8.03;;;4.10;;
31594;SDS011;18200;48.726;8.892;2023-06-24T09:16:39;5.30;;;4.00;;
31594;SDS011;18200;48.726;8.892;2023-06-24T09:20:41;7.18;;;3.92;;
31594;SDS011;18200;48.726;8.892;2023-06-24T09:24:45;6.95;;;4.10;;
31594;SDS011;18200;48.726;8.892;2023-06-24T09:28:47;7.45;;;4.60;;
31594;SDS011;18200;48.726;8.892;2023-06-24T09:32:49;6.00;;;4.57;;
31594;SDS011;18200;48.726;8.892;2023-06-24T09:36:51;5.90;;;4.10;;
31594;SDS011;18200;48.726;8.892;2023-06-24T09:40:53;7.03;;;4.03;;
31594;SDS011;18200;48.726;8.892;2023-06-24T09:45:05;7.63;;;4.10;;
31594;SDS011;18200;48.726;8.892;2023-06-24T09:49:06;14.73;;;4.75;;
31594;SDS011;18200;48.726;8.892;2023-06-24T09:53:06;6.05;;;3.97;;
31594;SDS011;18200;48.726;8.892;2023-06-24T09:57:07;6.95;;;4.18;;
31594;SDS011;18200;48.726;8.892;2023-06-24T10:01:09;9.70;;;4.25;;
31594;SDS011;18200;48.726;8.892;2023-06-24T10:05:10;4.97;;;3.95;;
31594;SDS011;18200;48.726;8.892;2023-06-24T10:09:11;5.50;;;4.50;;
31594;SDS011;18200;48.726;8.892;2023-06-24T10:13:13;5.90;;;3.85;;
31594;SDS011;18200;48.726;8.892;2023-06-24T10:17:14;11.95;;;4.43;;
31594;SDS011;18200;48.726;8.892;2023-06-24T10:21:14;6.88;;;4.25;;
31594;SDS011;18200;48.726;8.892;2023-06-24T10:25:15;5.72;;;4.20;;
31594;SDS011;18200;48.726;8.892;2023-06-24T10:29:16;6.30;;;3.78;;
31594;SDS011;18200;48.726;8.892;2023-06-24T10:33:17;5.32;;;3.45;;
31594;SDS011;18200;48.726;8.892;2023-06-24T10:37:22;4.82;;;3.50;;
31594;SDS011;18200;48.726;8.892;2023-06-24T10:41:24;4.82;;;3.60;;
31594;SDS011;18200;48.726;8.892;2023-06-24T10:45:25;5.28;;;3.67;;
31594;SDS011;18200;48.726;8.892;2023-06-24T10:49:25;5.35;;;3.47;;
31594;SDS011;18200;48.726;8.892;2023-06-24T10:53:26;5.82;;;3.03;;
31594;SDS011;18200;48.726;8.892;2023-06-24T10:57:27;5.25;;;3.40;;
31594;SDS011;18200;48.726;8.892;2023-06-24T11:01:27;3.60;;;2.60;;
31594;SDS011;18200;48.726;8.892;2023-06-24T11:05:28;4.97;;;3.42;;
31594;SDS011;18200;48.726;8.892;2023-06-24T11:09:31;5.50;;;3.17;;
31594;SDS011;18200;48.726;8.892;2023-06-24T11:13:33;4.13;;;2.90;;
31594;SDS011;18200;48.726;8.892;2023-06-24T11:17:34;3.47;;;3.17;;
31594;SDS011;18200;48.726;8.892;2023-06-24T11:21:35;4.25;;;3.55;;
31594;SDS011;18200;48.726;8.892;2023-06-24T11:25:39;4.80;;;3.53;;
31594;SDS011;18200;48.726;8.892;2023-06-24T11:29:41;4.38;;;3.10;;
31594;SDS011;18200;48.726;8.892;2023-06-24T11:33:41;5.07;;;3.53;;
31594;SDS011;18200;48.726;8.892;2023-06-24T11:37:43;4.53;;;3.50;;
31594;SDS011;18200;48.726;8.892;2023-06-24T11:41:45;4.35;;;3.20;;
31594;SDS011;18200;48.726;8.892;2023-06-24T11:45:47;4.93;;;3.63;;
31594;SDS011;18200;48.726;8.892;2023-06-24T11:49:49;4.80;;;3.15;;
31594;SDS011;18200;48.726;8.892;2023-06-24T11:53:52;5.05;;;3.70;;
31594;SDS011;18200;48.726;8.892;2023-06-24T12:02:01;6.30;;;3.53;;
31594;SDS011;18200;48.726;8.892;2023-06-24T12:06:03;5.88;;;3.17;;
31594;SDS011;18200;48.726;8.892;2023-06-24T12:10:04;4.07;;;3.25;;
31594;SDS011;18200;48.726;8.892;2023-06-24T12:14:05;3.85;;;2.90;;
31594;SDS011;18200;48.726;8.892;2023-06-24T12:18:06;6.05;;;3.00;;
31594;SDS011;18200;48.726;8.892;2023-06-24T12:22:06;5.05;;;3.00;;
31594;SDS011;18200;48.726;8.892;2023-06-24T12:26:07;4.47;;;3.33;;
31594;SDS011;18200;48.726;8.892;2023-06-24T12:30:07;6.53;;;3.10;;
31594;SDS011;18200;48.726;8.892;2023-06-24T12:34:08;4.13;;;3.00;;
31594;SDS011;18200;48.726;8.892;2023-06-24T12:38:08;3.97;;;3.30;;
31594;SDS011;18200;48.726;8.892;2023-06-24T12:42:09;3.75;;;2.92;;
31594;SDS011;18200;48.726;8.892;2023-06-24T12:46:09;8.05;;;3.47;;
31594;SDS011;18200;48.726;8.892;2023-06-24T12:50:09;4.10;;;3.27;;
31594;SDS011;18200;48.726;8.892;2023-06-24T12:54:10;4.10;;;3.20;;
31594;SDS011;18200;48.726;8.892;2023-06-24T12:58:12;4.85;;;3.58;;
31594;SDS011;18200;48.726;8.892;2023-06-24T13:02:14;3.70;;;2.88;;
31594;SDS011;18200;48.726;8.892;2023-06-24T13:06:15;5.45;;;3.13;;
31594;SDS011;18200;48.726;8.892;2023-06-24T13:10:15;5.72;;;3.15;;
31594;SDS011;18200;48.726;8.892;2023-06-24T13:14:16;5.60;;;2.75;;
31594;SDS011;18200;48.726;8.892;2023-06-24T13:18:16;4.70;;;3.03;;
31594;SDS011;18200;48.726;8.892;2023-06-24T13:22:18;4.15;;;3.20;;
31594;SDS011;18200;48.726;8.892;2023-06-24T13:26:18;3.90;;;2.83;;
31594;SDS011;18200;48.726;8.892;2023-06-24T13:30:19;5.57;;;2.97;;
31594;SDS011;18200;48.726;8.892;2023-06-24T13:34:19;5.63;;;2.95;;
31594;SDS011;18200;48.726;8.892;2023-06-24T13:38:20;3.60;;;3.03;;
31594;SDS011;18200;48.726;8.892;2023-06-24T13:42:20;3.28;;;2.97;;
31594;SDS011;18200;48.726;8.892;2023-06-24T13:46:20;3.87;;;2.87;;
31594;SDS011;18200;48.726;8.892;2023-06-24T13:50:21;3.87;;;2.77;;
31594;SDS011;18200;48.726;8.892;2023-06-24T13:54:21;4.57;;;3.30;;
31594;SDS011;18200;48.726;8.892;2023-06-24T13:58:22;5.03;;;3.47;;
31594;SDS011;18200;48.726;8.892;2023-06-24T14:02:22;7.27;;;3.40;;
31594;SDS011;18200;48.726;8.892;2023-06-24T14:06:23;3.88;;;3.10;;
31594;SDS011;18200;48.726;8.892;2023-06-24T14:10:24;5.72;;;3.05;;
31594;SDS011;18200;48.726;8.892;2023-06-24T14:14:25;7.65;;;3.35;;
31594;SDS011;18200;48.726;8.892;2023-06-24T14:18:25;4.40;;;3.25;;
31594;SDS011;18200;48.726;8.892;2023-06-24T14:22:25;6.28;;;3.00;;
31594;SDS011;18200;48.726;8.892;2023-06-24T14:26:26;4.05;;;3.22;;
31594;SDS011;18200;48.726;8.892;2023-06-24T14:30:26;4.22;;;2.90;;
31594;SDS011;18200;48.726;8.892;2023-06-24T14:34:27;6.03;;;3.30;;
31594;SDS011;18200;48.726;8.892;2023-06-24T14:38:29;4.38;;;3.20;;
31594;SDS011;18200;48.726;8.892;2023-06-24T14:42:29;4.70;;;3.38;;
31594;SDS011;18200;48.726;8.892;2023-06-24T14:46:30;5.07;;;3.47;;
31594;SDS011;18200;48.726;8.892;2023-06-24T14:50:30;5.10;;;3.10;;
31594;SDS011;18200;48.726;8.892;2023-06-24T14:54:31;3.25;;;2.95;;
31594;SDS011;18200;48.726;8.892;2023-06-24T14:58:31;3.83;;;2.92;;
31594;SDS011;18200;48.726;8.892;2023-06-24T15:02:31;8.48;;;3.40;;
31594;SDS011;18200;48.726;8.892;2023-06-24T15:06:32;3.75;;;2.80;;
31594;SDS011;18200;48.726;8.892;2023-06-24T15:10:32;6.38;;;3.38;;
31594;SDS011;18200;48.726;8.892;2023-06-24T15:14:32;5.60;;;3.40;;
31594;SDS011;18200;48.726;8.892;2023-06-24T15:18:33;5.72;;;3.45;;
31594;SDS011;18200;48.726;8.892;2023-06-24T15:22:33;5.30;;;3.70;;
31594;SDS011;18200;48.726;8.892;2023-06-24T15:26:34;5.85;;;3.70;;
31594;SDS011;18200;48.726;8.892;2023-06-24T15:30:34;4.68;;;3.33;;
31594;SDS011;18200;48.726;8.892;2023-06-24T15:34:34;4.60;;;3.47;;
31594;SDS011;18200;48.726;8.892;2023-06-24T15:38:35;4.10;;;3.40;;
31594;SDS011;18200;48.726;8.892;2023-06-24T15:42:35;4.40;;;3.17;;
31594;SDS011;18200;48.726;8.892;2023-06-24T15:46:37;4.28;;;3.75;;
31594;SDS011;18200;48.726;8.892;2023-06-24T15:50:38;11.75;;;8.07;;
31594;SDS011;18200;48.726;8.892;2023-06-24T15:54:39;13.07;;;11.25;;
31594;SDS011;18200;48.726;8.892;2023-06-24T15:58:39;5.40;;;3.28;;
31594;SDS011;18200;48.726;8.892;2023-06-24T16:02:40;5.57;;;3.60;;
31594;SDS011;18200;48.726;8.892;2023-06-24T16:06:41;11.95;;;9.05;;
31594;SDS011;18200;48.726;8.892;2023-06-24T16:10:41;5.68;;;3.50;;
31594;SDS011;18200;48.726;8.892;2023-06-24T16:14:41;6.47;;;4.53;;
31594;SDS011;18200;48.726;8.892;2023-06-24T16:18:42;4.93;;;4.33;;
31594;SDS011;18200;48.726;8.892;2023-06-24T16:22:43;5.10;;;3.70;;
31594;SDS011;18200;48.726;8.892;2023-06-24T16:26:44;9.57;;;5.38;;
31594;SDS011;18200;48.726;8.892;2023-06-24T16:30:44;3.97;;;3.58;;
31594;SDS011;18200;48.726;8.892;2023-06-24T16:34:44;4.50;;;4.00;;
31594;SDS011;18200;48.726;8.892;2023-06-24T16:38:45;5.83;;;3.90;;
31594;SDS011;18200;48.726;8.892;2023-06-24T16:42:45;6.70;;;3.90;;
31594;SDS011;18200;48.726;8.892;2023-06-24T16:46:46;5.03;;;3.45;;
31594;SDS011;18200;48.726;8.892;2023-06-24T16:50:46;5.73;;;3.57;;
31594;SDS011;18200;48.726;8.892;2023-06-24T16:54:46;5.15;;;3.60;;
31594;SDS011;18200;48.726;8.892;2023-06-24T16:58:47;6.40;;;4.03;;
31594;SDS011;18200;48.726;8.892;2023-06-24T17:02:47;6.75;;;4.75;;
31594;SDS011;18200;48.726;8.892;2023-06-24T17:06:48;5.20;;;4.43;;
31594;SDS011;18200;48.726;8.892;2023-06-24T17:10:48;6.38;;;3.20;;
31594;SDS011;18200;48.726;8.892;2023-06-24T17:14:49;4.57;;;3.25;;
31594;SDS011;18200;48.726;8.892;2023-06-24T17:18:49;4.32;;;3.30;;
31594;SDS011;18200;48.726;8.892;2023-06-24T17:22:49;5.90;;;3.77;;
31594;SDS011;18200;48.726;8.892;2023-06-24T17:26:50;4.13;;;3.58;;
31594;SDS011;18200;48.726;8.892;2023-06-24T17:30:50;5.67;;;3.87;;
31594;SDS011;18200;48.726;8.892;2023-06-24T17:34:51;4.88;;;3.83;;
31594;SDS011;18200;48.726;8.892;2023-06-24T17:38:51;6.97;;;5.15;;
31594;SDS011;18200;48.726;8.892;2023-06-24T17:42:51;6.03;;;3.83;;
31594;SDS011;18200;48.726;8.892;2023-06-24T17:46:54;9.93;;;8.38;;
31594;SDS011;18200;48.726;8.892;2023-06-24T17:50:54;27.67;;;18.60;;
31594;SDS011;18200;48.726;8.892;2023-06-24T17:54:55;3.67;;;3.20;;
31594;SDS011;18200;48.726;8.892;2023-06-24T17:58:55;11.00;;;6.03;;
31594;SDS011;18200;48.726;8.892;2023-06-24T18:02:55;6.20;;;4.60;;
31594;SDS011;18200;48.726;8.892;2023-06-24T18:06:56;4.30;;;3.60;;
31594;SDS011;18200;48.726;8.892;2023-06-24T18:10:56;4.25;;;3.03;;
31594;SDS011;18200;48.726;8.892;2023-06-24T18:14:56;6.75;;;4.07;;
31594;SDS011;18200;48.726;8.892;2023-06-24T18:18:57;4.60;;;3.30;;
31594;SDS011;18200;48.726;8.892;2023-06-24T18:22:57;5.22;;;3.20;;
31594;SDS011;18200;48.726;8.892;2023-06-24T18:26:57;4.00;;;3.35;;
31594;SDS011;18200;48.726;8.892;2023-06-24T18:30:58;5.75;;;3.40;;
31594;SDS011;18200;48.726;8.892;2023-06-24T18:34:58;8.87;;;3.90;;
31594;SDS011;18200;48.726;8.892;2023-06-24T18:38:59;12.57;;;5.07;;
31594;SDS011;18200;48.726;8.892;2023-06-24T18:42:59;4.43;;;3.58;;
31594;SDS011;18200;48.726;8.892;2023-06-24T18:46:59;4.47;;;3.33;;
31594;SDS011;18200;48.726;8.892;2023-06-24T18:51:00;7.15;;;3.45;;
31594;SDS011;18200;48.726;8.892;2023-06-24T18:55:00;7.67;;;3.73;;
31594;SDS011;18200;48.726;8.892;2023-06-24T18:59:00;7.47;;;3.53;;
31594;SDS011;18200;48.726;8.892;2023-06-24T19:03:01;4.07;;;3.00;;
31594;SDS011;18200;48.726;8.892;2023-06-24T19:07:01;4.97;;;3.33;;
31594;SDS011;18200;48.726;8.892;2023-06-24T19:11:02;4.80;;;3.95;;
31594;SDS011;18200;48.726;8.892;2023-06-24T19:15:02;10.88;;;3.92;;
31594;SDS011;18200;48.726;8.892;2023-06-24T19:19:02;5.80;;;3.75;;
31594;SDS011;18200;48.726;8.892;2023-06-24T19:23:05;7.20;;;3.97;;
31594;SDS011;18200;48.726;8.892;2023-06-24T19:27:05;10.43;;;3.70;;
31594;SDS011;18200;48.726;8.892;2023-06-24T19:31:06;5.10;;;3.17;;
31594;SDS011;18200;48.726;8.892;2023-06-24T19:35:06;7.20;;;3.90;;
31594;SDS011;18200;48.726;8.892;2023-06-24T19:39:07;5.70;;;3.47;;
31594;SDS011;18200;48.726;8.892;2023-06-24T19:43:07;7.07;;;3.85;;
31594;SDS011;18200;48.726;8.892;2023-06-24T19:47:07;6.90;;;3.88;;
31594;SDS011;18200;48.726;8.892;2023-06-24T19:51:08;5.72;;;3.50;;
31594;SDS011;18200;48.726;8.892;2023-06-24T19:55:08;4.50;;;3.43;;
31594;SDS011;18200;48.726;8.892;2023-06-24T19:59:09;7.65;;;3.78;;
31594;SDS011;18200;48.726;8.892;2023-06-24T20:03:09;9.13;;;4.18;;
31594;SDS011;18200;48.726;8.892;2023-06-24T20:07:09;11.88;;;4.40;;
31594;SDS011;18200;48.726;8.892;2023-06-24T20:11:10;7.25;;;3.85;;
31594;SDS011;18200;48.726;8.892;2023-06-24T20:15:10;9.25;;;5.03;;
31594;SDS011;18200;48.726;8.892;2023-06-24T20:19:11;5.65;;;3.92;;
31594;SDS011;18200;48.726;8.892;2023-06-24T20:23:11;9.52;;;4.25;;
31594;SDS011;18200;48.726;8.892;2023-06-24T20:27:11;8.45;;;4.05;;
31594;SDS011;18200;48.726;8.892;2023-06-24T20:31:12;11.63;;;4.15;;
31594;SDS011;18200;48.726;8.892;2023-06-24T20:35:12;9.02;;;4.03;;
31594;SDS011;18200;48.726;8.892;2023-06-24T20:39:14;6.50;;;4.53;;
31594;SDS011;18200;48.726;8.892;2023-06-24T20:43:15;8.00;;;4.07;;
31594;SDS011;18200;48.726;8.892;2023-06-24T20:47:15;7.85;;;5.10;;
31594;SDS011;18200;48.726;8.892;2023-06-24T20:51:16;6.00;;;5.25;;
31594;SDS011;18200;48.726;8.892;2023-06-24T20:55:17;8.20;;;5.50;;
31594;SDS011;18200;48.726;8.892;2023-06-24T20:59:17;8.00;;;6.20;;
31594;SDS011;18200;48.726;8.892;2023-06-24T21:03:18;6.28;;;5.65;;
31594;SDS011;18200;48.726;8.892;2023-06-24T21:07:18;7.03;;;5.78;;
31594;SDS011;18200;48.726;8.892;2023-06-24T21:11:18;6.10;;;5.50;;
31594;SDS011;18200;48.726;8.892;2023-06-24T21:15:20;10.05;;;6.57;;
31594;SDS011;18200;48.726;8.892;2023-06-24T21:19:21;6.28;;;5.38;;
31594;SDS011;18200;48.726;8.892;2023-06-24T21:23:21;6.75;;;6.05;;
31594;SDS011;18200;48.726;8.892;2023-06-24T21:27:21;11.43;;;7.03;;
31594;SDS011;18200;48.726;8.892;2023-06-24T21:31:22;8.32;;;6.32;;
31594;SDS011;18200;48.726;8.892;2023-06-24T21:35:22;10.82;;;7.05;;
31594;SDS011;18200;48.726;8.892;2023-06-24T21:39:22;7.72;;;6.90;;
31594;SDS011;18200;48.726;8.892;2023-06-24T21:43:23;7.63;;;6.28;;
31594;SDS011;18200;48.726;8.892;2023-06-24T21:47:23;11.93;;;6.75;;
31594;SDS011;18200;48.726;8.892;2023-06-24T21:51:23;8.13;;;6.43;;
31594;SDS011;18200;48.726;8.892;2023-06-24T21:55:24;8.90;;;6.28;;
31594;SDS011;18200;48.726;8.892;2023-06-24T21:59:24;7.47;;;6.03;;
31594;SDS011;18200;48.726;8.892;2023-06-24T22:03:24;9.15;;;6.03;;
31594;SDS011;18200;48.726;8.892;2023-06-24T22:07:25;6.32;;;5.72;;
31594;SDS011;18200;48.726;8.892;2023-06-24T22:11:25;8.25;;;6.85;;
31594;SDS011;18200;48.726;8.892;2023-06-24T22:15:26;7.55;;;6.45;;
31594;SDS011;18200;48.726;8.892;2023-06-24T22:19:26;6.82;;;5.45;;
31594;SDS011;18200;48.726;8.892;2023-06-24T22:23:26;7.40;;;6.00;;
31594;SDS011;18200;48.726;8.892;2023-06-24T22:27:27;10.05;;;6.22;;
31594;SDS011;18200;48.726;8.892;2023-06-24T22:31:27;6.80;;;5.97;;
31594;SDS011;18200;48.726;8.892;2023-06-24T22:35:27;9.07;;;5.78;;
31594;SDS011;18200;48.726;8.892;2023-06-24T22:39:28;7.45;;;6.13;;
31594;SDS011;18200;48.726;8.892;2023-06-24T22:43:28;8.00;;;6.07;;
31594;SDS011;18200;48.726;8.892;2023-06-24T22:47:28;8.88;;;6.68;;
31594;SDS011;18200;48.726;8.892;2023-06-24T22:51:29;8.50;;;6.15;;
31594;SDS011;18200;48.726;8.892;2023-06-24T22:55:29;9.85;;;6.22;;
31594;SDS011;18200;48.726;8.892;2023-06-24T22:59:29;7.22;;;5.90;;
31594;SDS011;18200;48.726;8.892;2023-06-24T23:03:30;7.35;;;5.55;;
31594;SDS011;18200;48.726;8.892;2023-06-24T23:07:30;7.40;;;5.60;;
31594;SDS011;18200;48.726;8.892;2023-06-24T23:11:31;7.95;;;5.68;;
31594;SDS011;18200;48.726;8.892;2023-06-24T23:15:32;9.68;;;5.78;;
31594;SDS011;18200;48.726;8.892;2023-06-24T23:19:34;6.20;;;5.43;;
31594;SDS011;18200;48.726;8.892;2023-06-24T23:23:35;7.40;;;5.90;;
31594;SDS011;18200;48.726;8.892;2023-06-24T23:27:36;9.95;;;6.80;;
31594;SDS011;18200;48.726;8.892;2023-06-24T23:31:38;8.32;;;6.45;;
31594;SDS011;18200;48.726;8.892;2023-06-24T23:35:40;8.75;;;6.32;;
31594;SDS011;18200;48.726;8.892;2023-06-24T23:39:41;11.45;;;6.78;;
31594;SDS011;18200;48.726;8.892;2023-06-24T23:43:42;8.95;;;6.72;;
31594;SDS011;18200;48.726;8.892;2023-06-24T23:47:43;9.93;;;6.38;;
31594;SDS011;18200;48.726;8.892;2023-06-24T23:51:43;7.63;;;5.75;;
31594;SDS011;18200;48.726;8.892;2023-06-24T23:55:43;9.20;;;6.00;;
31594;SDS011;18200;48.726;8.892;2023-06-24T23:59:44;8.57;;;6.18;;
